YPEA

RAAF Base Pearce Airport

Bullsbrook, Australia
TAF YPEA 171613Z 1718/1812 18010KT CAVOK FM172100 11010KT CAVOK FM180600 22012KT CAVOK FM181000 18010KT CAVOK
Issued Valid From Valid To
Jan-17 @ 16:13 UTC
(7 hours ago)
Jan-17 @ 18:00 UTC
(5 hours ago)
Jan-18 @ 12:00 UTC
(in 13 hours)
Expired Click to View Jan-17 @ 18:00 to Jan-17 @ 21:00
TAF YPEA 171613Z 1718/1812 18010KT CAVOK
Wind Visibility Clouds Conditions
180° at 10 knots 10,000+ meters
  • No significant clouds
From Jan-17 @ 21:00 to Jan-18 @ 06:00
FM172100 11010KT CAVOK
Wind Visibility Clouds Conditions
110° at 10 knots 10,000+ meters
  • No significant clouds
From Jan-18 @ 06:00 to Jan-18 @ 10:00
FM180600 22012KT CAVOK
Wind Visibility Clouds Conditions
220° at 12 knots 10,000+ meters
  • No significant clouds
From Jan-18 @ 10:00 to Jan-18 @ 12:00
FM181000 18010KT CAVOK
Wind Visibility Clouds Conditions
180° at 10 knots 10,000+ meters
  • No significant clouds
TAF YPEA 171613Z 1718/1812 18010KT CAVOK FM172100 11010KT CAVOK FM180600 22012KT CAVOK FM181000 18010KT CAVOK
Issued Jan-17 @ 16:13 UTC
(7 hours ago)
Valid From Jan-17 @ 18:00 UTC
(5 hours ago)
Valid To Jan-18 @ 12:00 UTC
(in 13 hours)
Jan-17 @ 18:00 - Jan-17 @ 21:00
Wind Visibility
180° at 10 knots 10,000+ meters
Clouds
  • No significant clouds
Conditions
From Jan-17 @ 21:00 - Jan-18 @ 06:00
Wind Visibility
110° at 10 knots 10,000+ meters
Clouds
  • No significant clouds
Conditions
From Jan-18 @ 06:00 - Jan-18 @ 10:00
Wind Visibility
220° at 12 knots 10,000+ meters
Clouds
  • No significant clouds
Conditions
From Jan-18 @ 10:00 - Jan-18 @ 12:00
Wind Visibility
180° at 10 knots 10,000+ meters
Clouds
  • No significant clouds
Conditions